Terminal Aerodrome Forecast
Issued by NWS

Home | Current Version | Previous Version | Text Only | Print | Product List | Glossary On
Versions: 1 2 3 4 5 6 7 8 9 10 11 12 13 14 15 16 17 18 19
000
FTUS46 KPDT 012300
TAFDLS
TAF
KDLS 012335Z 0200/0224 VRB04KT P6SM SKC
     FM020100 34005KT P6SM SCT250
     FM020600 VRB04KT P6SM OVC200
     FM021200 32003KT P6SM SCT050 OVC100
     FM022100 31015KT P6SM SCT050 SCT080=

USA.gov is the U.S. government's official web portal to all federal, state and local government web resources and services.